createdAt,value
2022-11-15T00:00:53.381Z,9.10
2022-11-15T00:03:28.324Z,9.10
2022-11-15T00:05:54.879Z,9.10
2022-11-15T00:08:21.553Z,9.08
2022-11-15T00:10:58.311Z,9.10
2022-11-15T00:13:24.766Z,9.11
2022-11-15T00:15:51.171Z,9.12
2022-11-15T00:18:17.987Z,9.13
2022-11-15T00:20:44.301Z,9.11
2022-11-15T00:23:10.663Z,9.11
2022-11-15T00:25:37.054Z,9.11
2022-11-15T00:28:03.498Z,9.08
2022-11-15T00:30:29.902Z,9.10
2022-11-15T00:32:56.431Z,9.11
2022-11-15T00:35:23.078Z,9.12
2022-11-15T00:37:49.453Z,9.10
2022-11-15T00:40:16.182Z,9.10
2022-11-15T00:42:42.796Z,9.12
2022-11-15T00:45:10.067Z,9.10
2022-11-15T00:47:36.397Z,9.09
2022-11-15T00:50:02.830Z,9.07
2022-11-15T00:52:29.128Z,9.09
2022-11-15T00:54:55.431Z,9.12
2022-11-15T00:57:21.728Z,9.12
2022-11-15T00:59:48.181Z,9.12
2022-11-15T01:02:14.561Z,9.14
2022-11-15T01:04:40.862Z,9.13
2022-11-15T01:07:07.198Z,9.12
2022-11-15T01:09:33.596Z,9.16
2022-11-15T01:11:59.906Z,9.15
2022-11-15T01:14:26.384Z,9.16
2022-11-15T01:16:52.778Z,9.18
2022-11-15T01:19:19.135Z,9.17
2022-11-15T01:21:45.446Z,9.17
2022-11-15T01:24:13.906Z,9.18
2022-11-15T01:26:40.457Z,9.17
2022-11-15T01:29:06.819Z,9.14
2022-11-15T01:31:33.127Z,9.16
2022-11-15T01:33:59.448Z,9.16
2022-11-15T01:36:25.778Z,9.17
2022-11-15T01:38:56.292Z,9.20
2022-11-15T01:41:26.117Z,9.16
2022-11-15T01:43:57.878Z,9.16
2022-11-15T01:46:29.882Z,9.14
2022-11-15T01:49:01.435Z,9.16
2022-11-15T01:51:31.069Z,9.18
2022-11-15T01:54:02.999Z,9.20
2022-11-15T01:56:33.074Z,9.22
2022-11-15T01:59:03.871Z,9.22
2022-11-15T02:01:33.297Z,9.23
2022-11-15T02:04:04.964Z,9.23
2022-11-15T02:06:35.130Z,9.21
2022-11-15T02:09:01.738Z,9.21
2022-11-15T02:11:31.864Z,9.23
2022-11-15T02:14:01.941Z,9.24
2022-11-15T02:16:34.795Z,9.25
2022-11-15T02:19:19.553Z,9.27
2022-11-15T02:22:10.812Z,9.25
2022-11-15T02:25:05.118Z,9.23
2022-11-15T02:27:54.698Z,9.24
2022-11-15T02:30:33.861Z,9.28
2022-11-15T02:33:40.216Z,9.30
2022-11-15T02:36:23.935Z,9.25
2022-11-15T02:39:11.328Z,9.28
2022-11-15T02:41:55.604Z,9.28
2022-11-15T02:44:33.081Z,9.30
2022-11-15T02:47:17.695Z,9.30
2022-11-15T02:49:52.691Z,9.30
2022-11-15T02:52:26.426Z,9.32
2022-11-15T02:54:58.459Z,9.32
2022-11-15T02:57:52.776Z,9.34
2022-11-15T03:00:23.150Z,9.36
2022-11-15T03:03:12.770Z,9.35
2022-11-15T03:05:48.123Z,9.38
2022-11-15T03:08:32.707Z,9.37
2022-11-15T03:11:09.184Z,9.40
2022-11-15T03:14:21.157Z,9.41
2022-11-15T03:17:10.684Z,9.40
2022-11-15T03:19:54.273Z,9.36
2022-11-15T03:22:24.206Z,9.39
2022-11-15T03:24:58.224Z,9.42
2022-11-15T03:27:32.336Z,9.43
2022-11-15T03:30:03.887Z,9.43
2022-11-15T03:32:35.621Z,9.45
2022-11-15T03:35:27.208Z,9.46
2022-11-15T03:38:19.701Z,9.47
2022-11-15T03:41:06.465Z,9.47
2022-11-15T03:43:47.473Z,9.48
2022-11-15T03:46:29.568Z,9.48
2022-11-15T03:49:07.538Z,9.47
2022-11-15T03:51:34.129Z,9.49
2022-11-15T03:54:09.650Z,9.49
2022-11-15T03:56:36.043Z,9.51
2022-11-15T03:59:02.474Z,9.53
2022-11-15T04:01:28.990Z,9.55
2022-11-15T04:03:58.527Z,9.53
2022-11-15T04:06:24.981Z,9.54
2022-11-15T04:08:51.375Z,9.56
2022-11-15T04:11:17.811Z,9.56
2022-11-15T04:13:46.604Z,9.58
2022-11-15T04:16:13.179Z,9.60
2022-11-15T04:18:39.695Z,9.61
2022-11-15T04:21:25.704Z,9.62
2022-11-15T04:24:10.446Z,9.63
2022-11-15T04:26:36.853Z,9.66
2022-11-15T04:29:22.171Z,9.67
2022-11-15T04:31:48.556Z,9.68
2022-11-15T04:34:15.019Z,9.72
2022-11-15T04:37:02.145Z,9.75
2022-11-15T04:39:28.648Z,9.77
2022-11-15T04:41:55.149Z,9.75
2022-11-15T04:44:21.553Z,9.79
2022-11-15T04:46:48.220Z,9.82
2022-11-15T04:49:14.676Z,9.87
2022-11-15T04:51:41.216Z,9.91
2022-11-15T04:54:07.692Z,9.93
2022-11-15T04:56:34.186Z,9.96
2022-11-15T04:59:00.652Z,9.94
2022-11-15T05:01:29.476Z,9.96
2022-11-15T05:04:14.773Z,10.00
2022-11-15T05:06:43.999Z,10.06
2022-11-15T05:09:10.667Z,10.05
2022-11-15T05:11:37.119Z,10.11
2022-11-15T05:14:03.488Z,10.11
2022-11-15T05:16:29.928Z,10.14
2022-11-15T05:18:56.627Z,10.18
2022-11-15T05:21:23.071Z,10.22
2022-11-15T05:23:49.781Z,10.22
2022-11-15T05:26:19.607Z,10.24
2022-11-15T05:28:52.794Z,10.27
2022-11-15T05:31:19.242Z,10.29
2022-11-15T05:33:50.539Z,10.34
2022-11-15T05:36:28.618Z,10.37
2022-11-15T05:38:55.365Z,10.40
2022-11-15T05:41:27.785Z,10.41
2022-11-15T05:43:55.104Z,10.42
2022-11-15T05:46:21.732Z,10.44
2022-11-15T05:48:54.622Z,10.44
2022-11-15T05:51:25.595Z,10.46
2022-11-15T05:53:53.600Z,10.49
2022-11-15T05:56:26.817Z,10.50
2022-11-15T05:58:59.241Z,10.50
2022-11-15T06:01:27.838Z,10.53
2022-11-15T06:03:54.350Z,10.53
2022-11-15T06:06:20.871Z,10.55
2022-11-15T06:08:49.729Z,10.54
2022-11-15T06:11:16.200Z,10.53
2022-11-15T06:13:42.692Z,10.52
2022-11-15T06:16:09.327Z,10.54
2022-11-15T06:18:36.951Z,10.59
2022-11-15T06:21:03.731Z,10.62
2022-11-15T06:23:33.708Z,10.64
2022-11-15T06:26:01.802Z,10.65
2022-11-15T06:28:33.061Z,10.65
2022-11-15T06:31:21.398Z,10.65
2022-11-15T06:33:51.032Z,10.69
2022-11-15T06:36:21.664Z,10.66
2022-11-15T06:38:54.008Z,10.66
2022-11-15T06:41:22.015Z,10.64
2022-11-15T06:43:48.625Z,10.65
2022-11-15T06:46:15.376Z,10.68
2022-11-15T06:48:50.255Z,10.71
2022-11-15T06:51:16.664Z,10.69
2022-11-15T06:53:43.097Z,10.72
2022-11-15T06:56:10.209Z,10.74
2022-11-15T06:58:36.983Z,10.77
2022-11-15T07:01:09.615Z,10.76
2022-11-15T07:03:38.205Z,10.78
2022-11-15T07:06:07.534Z,10.80
2022-11-15T07:08:37.567Z,10.76
2022-11-15T07:11:06.754Z,10.78
2022-11-15T07:13:38.122Z,10.79
2022-11-15T07:16:12.003Z,10.80
2022-11-15T07:18:43.647Z,10.79
2022-11-15T07:21:13.122Z,10.80
2022-11-15T07:23:41.066Z,10.80
2022-11-15T07:26:08.866Z,10.82
2022-11-15T07:28:38.912Z,10.86
2022-11-15T07:31:12.750Z,10.87
2022-11-15T07:33:41.277Z,10.89
2022-11-15T07:36:11.082Z,10.88
2022-11-15T07:38:42.584Z,10.89
2022-11-15T07:41:12.659Z,10.90
2022-11-15T07:43:39.215Z,10.88
2022-11-15T07:46:14.125Z,10.90
2022-11-15T07:48:45.256Z,10.89
2022-11-15T07:51:21.781Z,10.88
2022-11-15T07:53:48.314Z,10.90
2022-11-15T07:56:14.835Z,10.90
2022-11-15T07:58:41.551Z,10.89
2022-11-15T08:01:10.659Z,10.92
2022-11-15T08:03:37.782Z,10.92
2022-11-15T08:06:07.183Z,10.93
2022-11-15T08:08:33.735Z,10.92
2022-11-15T08:11:00.809Z,10.94
2022-11-15T08:13:29.808Z,10.94
2022-11-15T08:16:00.695Z,10.95
2022-11-15T08:18:27.338Z,10.96
2022-11-15T08:20:53.734Z,10.96
2022-11-15T08:23:21.509Z,10.97
2022-11-15T08:25:48.006Z,10.99
2022-11-15T08:28:19.747Z,11.01
2022-11-15T08:30:47.540Z,11.00
2022-11-15T08:33:16.390Z,11.01
2022-11-15T08:35:51.659Z,11.02
2022-11-15T08:38:23.834Z,11.04
2022-11-15T08:40:53.091Z,11.06
2022-11-15T08:43:20.334Z,11.07
2022-11-15T08:45:46.993Z,11.06
2022-11-15T08:48:13.397Z,11.07
2022-11-15T08:50:43.009Z,11.09
2022-11-15T08:53:16.655Z,11.11
2022-11-15T08:55:45.528Z,11.11
2022-11-15T08:58:12.028Z,11.12
2022-11-15T09:00:41.046Z,11.13
2022-11-15T09:03:10.077Z,11.14
2022-11-15T09:05:37.600Z,11.16
2022-11-15T09:08:40.369Z,11.14
2022-11-15T09:10:57.272Z,11.15
2022-11-15T09:13:25.777Z,11.18
2022-11-15T09:15:55.022Z,11.20
2022-11-15T09:18:25.757Z,11.22
2022-11-15T09:20:52.190Z,11.24
2022-11-15T09:23:18.652Z,11.29
2022-11-15T09:25:48.779Z,11.28
2022-11-15T09:28:18.250Z,11.27
2022-11-15T09:30:50.958Z,11.29
2022-11-15T09:33:21.684Z,11.31
2022-11-15T09:35:48.227Z,11.33
2022-11-15T09:38:14.668Z,11.35
2022-11-15T09:40:51.424Z,11.35
2022-11-15T09:43:49.514Z,11.33
2022-11-15T09:46:46.745Z,11.35
2022-11-15T09:49:23.486Z,11.36
2022-11-15T09:51:53.967Z,11.37
2022-11-15T09:54:56.548Z,11.41
2022-11-15T09:57:54.139Z,11.43
2022-11-15T10:00:49.881Z,11.43
2022-11-15T10:03:30.030Z,11.45
2022-11-15T10:06:09.227Z,11.48
2022-11-15T10:08:58.241Z,11.49
2022-11-15T10:11:37.669Z,11.48
2022-11-15T10:14:22.869Z,11.49
2022-11-15T10:17:27.140Z,11.51
2022-11-15T10:20:13.040Z,11.53
2022-11-15T10:22:41.175Z,11.55
2022-11-15T10:25:10.779Z,11.56
2022-11-15T10:27:47.704Z,11.55
2022-11-15T10:30:25.261Z,11.55
2022-11-15T10:32:54.966Z,11.56
2022-11-15T10:35:30.850Z,11.58
2022-11-15T10:38:14.834Z,11.60
2022-11-15T10:40:48.195Z,11.60
2022-11-15T10:43:21.696Z,11.61
2022-11-15T10:45:48.804Z,11.63
2022-11-15T10:48:17.392Z,11.63
2022-11-15T10:50:49.147Z,11.67
2022-11-15T10:53:26.037Z,11.71
2022-11-15T10:56:01.347Z,11.71
2022-11-15T10:58:47.054Z,11.73
2022-11-15T11:01:57.887Z,11.73
2022-11-15T11:04:21.386Z,11.76
2022-11-15T11:06:55.297Z,11.79
2022-11-15T11:09:42.994Z,11.84
2022-11-15T11:12:15.243Z,11.87
2022-11-15T11:14:41.637Z,11.92
2022-11-15T11:17:32.595Z,11.97
2022-11-15T11:20:30.410Z,12.03
2022-11-15T11:23:21.291Z,12.09
2022-11-15T11:26:28.687Z,12.12
2022-11-15T11:29:03.698Z,12.15
2022-11-15T11:31:39.722Z,12.16
2022-11-15T11:34:34.496Z,12.16
2022-11-15T11:37:18.274Z,12.20
2022-11-15T11:40:11.253Z,12.22
2022-11-15T11:42:50.292Z,12.25
2022-11-15T11:45:31.365Z,12.27
2022-11-15T11:48:13.942Z,12.30
2022-11-15T11:50:43.309Z,12.34
2022-11-15T11:53:28.803Z,12.39
2022-11-15T11:55:59.844Z,12.45
2022-11-15T12:01:38.385Z,12.54
2022-11-15T12:04:30.907Z,12.58
2022-11-15T12:07:06.246Z,12.63
2022-11-15T12:09:59.259Z,12.65
2022-11-15T12:12:33.936Z,12.68
2022-11-15T12:15:15.228Z,12.69
2022-11-15T12:17:43.636Z,12.71
2022-11-15T12:20:41.747Z,12.72
2022-11-15T12:23:32.172Z,12.73
2022-11-15T12:26:28.305Z,12.75
2022-11-15T12:29:07.302Z,12.76
2022-11-15T12:31:44.651Z,12.78
2022-11-15T12:34:39.004Z,12.79
2022-11-15T12:37:38.724Z,12.80
2022-11-15T12:40:30.097Z,12.82
2022-11-15T12:43:22.447Z,12.85
2022-11-15T12:45:49.042Z,12.85
2022-11-15T12:48:18.463Z,12.85
2022-11-15T12:50:59.353Z,12.87
2022-11-15T12:53:25.730Z,12.86
2022-11-15T12:56:04.438Z,12.87
2022-11-15T12:58:48.493Z,12.88
2022-11-15T13:01:36.428Z,12.88
2022-11-15T13:04:22.275Z,12.88
2022-11-15T13:07:08.470Z,12.88
2022-11-15T13:09:34.823Z,12.88
2022-11-15T13:12:05.066Z,12.88
2022-11-15T13:14:46.673Z,12.88
2022-11-15T13:17:26.713Z,12.87
2022-11-15T13:20:03.781Z,12.87
2022-11-15T13:22:57.163Z,12.88
2022-11-15T13:26:05.983Z,12.86
2022-11-15T13:28:43.202Z,12.87
2022-11-15T13:31:28.857Z,12.89
2022-11-15T13:33:59.020Z,12.89
2022-11-15T13:36:29.872Z,12.87
2022-11-15T13:39:01.077Z,12.88
2022-11-15T13:41:36.296Z,12.87
2022-11-15T13:44:06.359Z,12.87
2022-11-15T13:46:34.104Z,12.87
2022-11-15T13:49:23.817Z,12.87
2022-11-15T13:51:54.571Z,12.86
2022-11-15T13:54:31.398Z,12.86
2022-11-15T13:57:06.516Z,12.85
2022-11-15T13:59:37.382Z,12.86
2022-11-15T14:02:13.705Z,12.86
2022-11-15T14:04:51.483Z,12.86
2022-11-15T14:07:33.253Z,12.85
2022-11-15T14:10:25.522Z,12.85
2022-11-15T14:12:53.144Z,12.86
2022-11-15T14:15:39.941Z,12.86
2022-11-15T14:18:07.070Z,12.86
2022-11-15T14:20:36.499Z,12.85
2022-11-15T14:23:28.828Z,12.84
2022-11-15T14:25:57.993Z,12.84
2022-11-15T14:28:29.418Z,12.84
2022-11-15T14:31:00.848Z,12.81
2022-11-15T14:33:40.370Z,12.81
2022-11-15T14:36:27.072Z,12.80
2022-11-15T14:38:55.139Z,12.79
2022-11-15T14:41:24.539Z,12.78
2022-11-15T14:43:52.284Z,12.78
2022-11-15T14:46:19.070Z,12.77
2022-11-15T14:48:51.498Z,12.76
2022-11-15T14:51:20.074Z,12.76
2022-11-15T14:53:51.656Z,12.76
2022-11-15T14:56:18.251Z,12.74
2022-11-15T14:58:47.617Z,12.72
2022-11-15T15:01:24.274Z,12.71
2022-11-15T15:03:53.060Z,12.70
2022-11-15T15:06:24.240Z,12.70
2022-11-15T15:08:58.949Z,12.70
2022-11-15T15:11:28.435Z,12.70
2022-11-15T15:14:02.683Z,12.68
2022-11-15T15:16:29.098Z,12.67
2022-11-15T15:18:55.588Z,12.67
2022-11-15T15:21:33.561Z,12.66
2022-11-15T15:24:03.268Z,12.66
2022-11-15T15:26:29.691Z,12.63
2022-11-15T15:28:56.266Z,12.63
2022-11-15T15:31:22.733Z,12.62
2022-11-15T15:33:52.146Z,12.61
2022-11-15T15:36:19.725Z,12.62
2022-11-15T15:38:47.603Z,12.60
2022-11-15T15:41:18.015Z,12.60
2022-11-15T15:43:44.907Z,12.60
2022-11-15T15:46:14.743Z,12.58
2022-11-15T15:48:45.637Z,12.56
2022-11-15T15:51:19.605Z,12.57
2022-11-15T15:53:51.652Z,12.57
2022-11-15T15:56:17.998Z,12.57
2022-11-15T15:58:46.693Z,12.56
2022-11-15T16:01:13.209Z,12.56
2022-11-15T16:03:39.654Z,12.56
2022-11-15T16:06:40.200Z,12.55
2022-11-15T16:09:15.398Z,12.53
2022-11-15T16:11:47.260Z,12.51
2022-11-15T16:14:13.867Z,12.51
2022-11-15T16:16:40.436Z,12.49
2022-11-15T16:19:12.947Z,12.49
2022-11-15T16:21:40.290Z,12.47
2022-11-15T16:24:07.131Z,12.46
2022-11-15T16:26:35.751Z,12.45
2022-11-15T16:29:02.234Z,12.43
2022-11-15T16:31:28.647Z,12.42
2022-11-15T16:33:57.813Z,12.43
2022-11-15T16:36:30.505Z,12.44
2022-11-15T16:38:57.776Z,12.43
2022-11-15T16:41:24.231Z,12.42
2022-11-15T16:43:50.727Z,12.42
2022-11-15T16:46:26.635Z,12.41
2022-11-15T16:48:54.273Z,12.41
2022-11-15T16:51:21.273Z,12.40
2022-11-15T16:53:49.113Z,12.40
2022-11-15T16:56:17.952Z,12.42
2022-11-15T16:58:46.089Z,12.41
2022-11-15T17:01:19.308Z,12.40
2022-11-15T17:03:46.159Z,12.41
2022-11-15T17:06:13.782Z,12.39
2022-11-15T17:08:40.374Z,12.40
2022-11-15T17:11:08.333Z,12.41
2022-11-15T17:13:34.687Z,12.41
2022-11-15T17:16:14.831Z,12.42
2022-11-15T17:18:43.474Z,12.43
2022-11-15T17:21:21.450Z,12.42
2022-11-15T17:23:48.178Z,12.41
2022-11-15T17:26:29.496Z,12.41
2022-11-15T17:28:57.253Z,12.40
2022-11-15T17:31:23.873Z,12.43
2022-11-15T17:33:50.282Z,12.42
2022-11-15T17:36:16.688Z,12.42
2022-11-15T17:38:43.251Z,12.41
2022-11-15T17:41:14.555Z,12.42
2022-11-15T17:43:41.717Z,12.42
2022-11-15T17:46:11.679Z,12.44
2022-11-15T17:48:38.853Z,12.44
2022-11-15T17:51:07.233Z,12.44
2022-11-15T17:53:38.837Z,12.43
2022-11-15T17:56:06.974Z,12.44
2022-11-15T17:58:34.018Z,12.44
2022-11-15T18:01:21.711Z,12.44
2022-11-15T18:03:51.889Z,12.43
2022-11-15T18:06:22.192Z,12.43
2022-11-15T18:08:50.641Z,12.43
2022-11-15T18:11:20.837Z,12.43
2022-11-15T18:13:52.368Z,12.43
2022-11-15T18:16:22.121Z,12.41
2022-11-15T18:18:48.829Z,12.42
2022-11-15T18:21:18.515Z,12.43
2022-11-15T18:23:45.552Z,12.41
2022-11-15T18:26:16.073Z,12.40
2022-11-15T18:28:46.594Z,12.41
2022-11-15T18:31:16.601Z,12.40
2022-11-15T18:33:43.664Z,12.40
2022-11-15T18:36:12.970Z,12.40
2022-11-15T18:38:39.766Z,12.39
2022-11-15T18:41:09.294Z,12.39
2022-11-15T18:43:36.262Z,12.38
2022-11-15T18:46:12.725Z,12.39
2022-11-15T18:48:40.798Z,12.38
2022-11-15T18:51:11.738Z,12.38
2022-11-15T18:53:39.231Z,12.38
2022-11-15T18:56:11.072Z,12.39
2022-11-15T18:58:43.718Z,12.39
2022-11-15T19:01:11.923Z,12.38
2022-11-15T19:03:41.904Z,12.34
2022-11-15T19:06:13.137Z,12.33
2022-11-15T19:08:40.862Z,12.35
2022-11-15T19:11:31.368Z,12.34
2022-11-15T19:14:06.445Z,12.35
2022-11-15T19:16:44.941Z,12.38
2022-11-15T19:19:17.262Z,12.38
2022-11-15T19:21:43.873Z,12.37
2022-11-15T19:24:10.542Z,12.36
2022-11-15T19:26:37.879Z,12.37
2022-11-15T19:29:08.643Z,12.36
2022-11-15T19:31:35.045Z,12.37
2022-11-15T19:34:07.158Z,12.37
2022-11-15T19:36:37.987Z,12.35
2022-11-15T19:39:09.987Z,12.36
2022-11-15T19:41:38.501Z,12.34
2022-11-15T19:44:06.756Z,12.35
2022-11-15T19:46:33.702Z,12.33
2022-11-15T19:49:03.292Z,12.32
2022-11-15T19:51:30.886Z,12.33
2022-11-15T19:54:01.356Z,12.34
2022-11-15T19:56:27.875Z,12.35
2022-11-15T19:59:00.107Z,12.32
2022-11-15T20:01:32.402Z,12.33
2022-11-15T20:03:59.984Z,12.31
2022-11-15T20:06:39.324Z,12.34
2022-11-15T20:09:12.960Z,12.34
2022-11-15T20:11:39.394Z,12.33
2022-11-15T20:14:11.517Z,12.31
2022-11-15T20:16:41.535Z,12.32
2022-11-15T20:19:09.089Z,12.33
2022-11-15T20:21:36.113Z,12.35
2022-11-15T20:24:02.571Z,12.33
2022-11-15T20:26:30.318Z,12.33
2022-11-15T20:29:01.037Z,12.33
2022-11-15T20:31:27.915Z,12.34
2022-11-15T20:33:56.574Z,12.32
2022-11-15T20:36:23.385Z,12.33
2022-11-15T20:38:49.963Z,12.33
2022-11-15T20:41:16.465Z,12.31
2022-11-15T20:43:43.506Z,12.33
2022-11-15T20:46:11.865Z,12.33
2022-11-15T20:48:38.453Z,12.33
2022-11-15T20:51:15.918Z,12.33
2022-11-15T20:53:43.948Z,12.32
2022-11-15T20:56:16.359Z,12.31
2022-11-15T20:58:44.665Z,12.30
2022-11-15T21:01:16.048Z,12.30
2022-11-15T21:03:43.013Z,12.30
2022-11-15T21:06:12.769Z,12.30
2022-11-15T21:08:57.957Z,12.30
2022-11-15T21:11:43.986Z,12.31
2022-11-15T21:14:10.805Z,12.30
2022-11-15T21:16:38.758Z,12.30
2022-11-15T21:19:06.539Z,12.30
2022-11-15T21:21:33.457Z,12.31
2022-11-15T21:23:59.999Z,12.29
2022-11-15T21:26:26.504Z,12.29
2022-11-15T21:28:52.890Z,12.30
2022-11-15T21:31:19.287Z,12.30
2022-11-15T21:33:48.853Z,12.30
2022-11-15T21:36:15.291Z,12.30
2022-11-15T21:38:41.753Z,12.30
2022-11-15T21:41:08.568Z,12.30
2022-11-15T21:43:35.038Z,12.28
2022-11-15T21:46:06.134Z,12.30
2022-11-15T21:48:35.017Z,12.30
2022-11-15T21:51:10.618Z,12.31
2022-11-15T21:53:36.983Z,12.32
2022-11-15T21:56:03.664Z,12.30
2022-11-15T21:58:31.151Z,12.31
2022-11-15T22:01:17.389Z,12.33
2022-11-15T22:03:47.992Z,12.31
2022-11-15T22:06:18.042Z,12.31
2022-11-15T22:08:48.317Z,12.31
2022-11-15T22:11:14.889Z,12.31
2022-11-15T22:13:41.847Z,12.33
2022-11-15T22:16:09.408Z,12.31
2022-11-15T22:18:36.115Z,12.31
2022-11-15T22:21:05.930Z,12.32
2022-11-15T22:23:33.670Z,12.31
2022-11-15T22:26:00.624Z,12.31
2022-11-15T22:28:27.107Z,12.30
2022-11-15T22:30:57.368Z,12.30
2022-11-15T22:33:28.197Z,12.33
2022-11-15T22:35:55.045Z,12.30
2022-11-15T22:38:22.282Z,12.31
2022-11-15T22:40:48.994Z,12.31
2022-11-15T22:43:16.956Z,12.31
2022-11-15T22:46:03.519Z,12.30
2022-11-15T22:48:36.065Z,12.30
2022-11-15T22:51:03.956Z,12.30
2022-11-15T22:53:30.824Z,12.28
2022-11-15T22:55:59.090Z,12.29
2022-11-15T22:58:28.045Z,12.28
2022-11-15T23:01:01.572Z,12.27
2022-11-15T23:03:29.433Z,12.28
2022-11-15T23:06:04.972Z,12.29
2022-11-15T23:08:31.715Z,12.27
2022-11-15T23:11:21.063Z,12.28
2022-11-15T23:13:51.309Z,12.27
2022-11-15T23:16:25.661Z,12.27
2022-11-15T23:18:54.080Z,12.30
2022-11-15T23:21:50.839Z,12.29
2022-11-15T23:24:17.947Z,12.29
2022-11-15T23:26:50.496Z,12.29
2022-11-15T23:29:19.377Z,12.29
2022-11-15T23:32:04.857Z,12.31
2022-11-15T23:34:32.485Z,12.30
2022-11-15T23:36:59.742Z,12.30
2022-11-15T23:39:26.465Z,12.30
2022-11-15T23:41:52.970Z,12.31
2022-11-15T23:44:19.444Z,12.30
2022-11-15T23:46:45.917Z,12.29
2022-11-15T23:49:12.311Z,12.31
2022-11-15T23:51:38.796Z,12.30
2022-11-15T23:54:08.767Z,12.30
2022-11-15T23:56:35.241Z,12.30
2022-11-15T23:59:01.988Z,12.30
